Odum, Georgia
Current Conditions -  °F | °C
As of 10:55 AM on Friday 31 Oct 2014 (Local Time) from KJES Reporting Station
Clear Clear  
Wind Chill: 66°   Ceiling: Unl
Heat Index: 66°   Visibility: 10mi
Dew Point: 57°   Wind: 0mph
Humidity: 73%   Direction: NA
Pressure: 29.91"   Gusts: NA
Location:  31.67°N, 82.03°W
Report Text: KJES 311455Z AUTO 00000KT 10SM CLR 19/14 A2991 RMK AO2
Loading
Personal Weather Stations






























Interactive Weather Map
Tropical Storm Tracking
New forecast layout! Learn more

10-Day Weather Forecast

Advertisements
Track Severe Weather on mobile